ABV weather

Nnamdi Azikiwe International Airport
Abuja, Abuja Capital Territory, Nigeria

Public forecast

Using degrees Celsius for public forecast. Weather courtesy of forecast.io.

Current aviation weather report (METAR) for Nnamdi Azikiwe International Airport

Retrieved 2019/10/22 17:00 UTC (59 minutes ago):

DNAA 221700Z 24003KT 9999 FEW010 FEW020CB 27/23 Q1009 TEMPO TS RMK CB N-SE

Aviation forecast (TAF) for Nnamdi Azikiwe International Airport

Retrieved 2019/10/22 12:21 UTC (6 hours ago):

TAF DNAA 221040Z 2212/2318 VRB02KT 9999 BKN012 TEMPO 2215/2220 TS FEW020CB PROB30 2216/2218 04015G30KT -TSRA BKN008 BECMG 2220/2222 14010KT 9999 FEW010